Terminal Aerodrome Forecast
Issued by NWS

Home | Current Version | Previous Version | Text Only | Print | Product List | Glossary On
Versions: 1 2 3 4 5 6 7 8 9 10 11 12 13 14 15 16 17
616
FTUS44 KLZK 251120
TAFLLQ
TAF
KLLQ 251120Z 2512/2612 VRB05KT P6SM FEW250
     FM251400 18014G22KT P6SM SCT250
     FM260100 16014G20KT P6SM SCT040
     FM260500 18012G18KT P6SM BKN015=

USA.gov is the U.S. government's official web portal to all federal, state and local government web resources and services.